sensor_id;sensor_type;location;lat;lon;timestamp;P1;durP1;ratioP1;P2;durP2;ratioP2
1577;SDS011;57623;53.608;10.004;2023-04-24T00:00:57;8.23;;;7.53;;
1577;SDS011;57623;53.608;10.004;2023-04-24T00:03:27;8.40;;;7.70;;
1577;SDS011;57623;53.608;10.004;2023-04-24T00:05:57;8.60;;;7.80;;
1577;SDS011;57623;53.608;10.004;2023-04-24T00:08:27;8.17;;;7.47;;
1577;SDS011;57623;53.608;10.004;2023-04-24T00:10:54;8.10;;;7.50;;
1577;SDS011;57623;53.608;10.004;2023-04-24T00:13:22;8.27;;;7.67;;
1577;SDS011;57623;53.608;10.004;2023-04-24T00:15:50;8.47;;;7.77;;
1577;SDS011;57623;53.608;10.004;2023-04-24T00:18:18;8.63;;;7.93;;
1577;SDS011;57623;53.608;10.004;2023-04-24T00:20:46;8.30;;;7.60;;
1577;SDS011;57623;53.608;10.004;2023-04-24T00:23:16;8.27;;;7.57;;
1577;SDS011;57623;53.608;10.004;2023-04-24T00:25:43;8.33;;;7.53;;
1577;SDS011;57623;53.608;10.004;2023-04-24T00:28:11;8.20;;;7.60;;
1577;SDS011;57623;53.608;10.004;2023-04-24T00:30:39;8.03;;;7.33;;
1577;SDS011;57623;53.608;10.004;2023-04-24T00:33:07;8.50;;;7.90;;
1577;SDS011;57623;53.608;10.004;2023-04-24T00:35:37;7.70;;;7.10;;
1577;SDS011;57623;53.608;10.004;2023-04-24T00:38:05;8.40;;;7.80;;
1577;SDS011;57623;53.608;10.004;2023-04-24T00:40:34;7.83;;;7.13;;
1577;SDS011;57623;53.608;10.004;2023-04-24T00:43:02;8.40;;;7.60;;
1577;SDS011;57623;53.608;10.004;2023-04-24T00:45:30;7.53;;;6.93;;
1577;SDS011;57623;53.608;10.004;2023-04-24T00:47:58;8.10;;;7.40;;
1577;SDS011;57623;53.608;10.004;2023-04-24T00:50:28;7.30;;;6.70;;
1577;SDS011;57623;53.608;10.004;2023-04-24T00:52:56;8.13;;;7.50;;
1577;SDS011;57623;53.608;10.004;2023-04-24T00:55:24;7.97;;;7.27;;
1577;SDS011;57623;53.608;10.004;2023-04-24T00:57:54;8.57;;;7.87;;
1577;SDS011;57623;53.608;10.004;2023-04-24T01:00:22;8.63;;;7.90;;
1577;SDS011;57623;53.608;10.004;2023-04-24T01:02:51;8.50;;;7.83;;
1577;SDS011;57623;53.608;10.004;2023-04-24T01:05:20;8.50;;;7.90;;
1577;SDS011;57623;53.608;10.004;2023-04-24T01:07:48;8.70;;;8.00;;
1577;SDS011;57623;53.608;10.004;2023-04-24T01:10:16;9.20;;;8.40;;
1577;SDS011;57623;53.608;10.004;2023-04-24T01:12:46;8.83;;;8.10;;
1577;SDS011;57623;53.608;10.004;2023-04-24T01:15:15;8.37;;;7.60;;
1577;SDS011;57623;53.608;10.004;2023-04-24T01:17:43;7.70;;;7.10;;
1577;SDS011;57623;53.608;10.004;2023-04-24T01:20:11;7.83;;;7.03;;
1577;SDS011;57623;53.608;10.004;2023-04-24T01:22:43;7.83;;;7.23;;
1577;SDS011;57623;53.608;10.004;2023-04-24T01:25:11;8.40;;;7.77;;
1577;SDS011;57623;53.608;10.004;2023-04-24T01:27:39;7.30;;;6.80;;
1577;SDS011;57623;53.608;10.004;2023-04-24T01:30:07;6.93;;;6.33;;
1577;SDS011;57623;53.608;10.004;2023-04-24T01:32:36;7.53;;;6.80;;
1577;SDS011;57623;53.608;10.004;2023-04-24T01:35:05;7.47;;;6.83;;
1577;SDS011;57623;53.608;10.004;2023-04-24T01:37:34;7.90;;;6.40;;
1577;SDS011;57623;53.608;10.004;2023-04-24T01:40:05;7.40;;;6.90;;
1577;SDS011;57623;53.608;10.004;2023-04-24T01:42:34;7.10;;;6.50;;
1577;SDS011;57623;53.608;10.004;2023-04-24T01:45:03;6.40;;;5.80;;
1577;SDS011;57623;53.608;10.004;2023-04-24T01:47:32;7.00;;;6.30;;
1577;SDS011;57623;53.608;10.004;2023-04-24T01:50:00;6.13;;;5.40;;
1577;SDS011;57623;53.608;10.004;2023-04-24T01:52:28;6.47;;;5.83;;
1577;SDS011;57623;53.608;10.004;2023-04-24T01:54:59;5.70;;;5.20;;
1577;SDS011;57623;53.608;10.004;2023-04-24T01:57:29;5.73;;;5.23;;
1577;SDS011;57623;53.608;10.004;2023-04-24T01:59:57;6.13;;;5.63;;
1577;SDS011;57623;53.608;10.004;2023-04-24T02:02:25;7.73;;;4.90;;
1577;SDS011;57623;53.608;10.004;2023-04-24T02:04:55;5.67;;;5.27;;
1577;SDS011;57623;53.608;10.004;2023-04-24T02:07:23;4.97;;;4.67;;
1577;SDS011;57623;53.608;10.004;2023-04-24T02:09:51;5.30;;;4.90;;
1577;SDS011;57623;53.608;10.004;2023-04-24T02:12:19;5.30;;;4.90;;
1577;SDS011;57623;53.608;10.004;2023-04-24T02:14:48;4.83;;;4.43;;
1577;SDS011;57623;53.608;10.004;2023-04-24T02:17:16;5.00;;;4.50;;
1577;SDS011;57623;53.608;10.004;2023-04-24T02:19:45;4.87;;;4.47;;
1577;SDS011;57623;53.608;10.004;2023-04-24T02:22:13;3.90;;;3.60;;
1577;SDS011;57623;53.608;10.004;2023-04-24T02:24:41;3.50;;;3.30;;
1577;SDS011;57623;53.608;10.004;2023-04-24T02:27:09;3.87;;;3.57;;
1577;SDS011;57623;53.608;10.004;2023-04-24T02:29:37;3.57;;;3.33;;
1577;SDS011;57623;53.608;10.004;2023-04-24T02:32:07;4.87;;;3.40;;
1577;SDS011;57623;53.608;10.004;2023-04-24T02:34:37;3.70;;;3.50;;
1577;SDS011;57623;53.608;10.004;2023-04-24T02:37:05;3.33;;;3.13;;
1577;SDS011;57623;53.608;10.004;2023-04-24T02:39:33;5.13;;;3.47;;
1577;SDS011;57623;53.608;10.004;2023-04-24T02:42:01;3.63;;;3.43;;
1577;SDS011;57623;53.608;10.004;2023-04-24T02:44:29;4.43;;;4.03;;
1577;SDS011;57623;53.608;10.004;2023-04-24T02:46:57;3.63;;;3.43;;
1577;SDS011;57623;53.608;10.004;2023-04-24T02:49:26;4.03;;;3.73;;
1577;SDS011;57623;53.608;10.004;2023-04-24T02:51:54;4.57;;;4.27;;
1577;SDS011;57623;53.608;10.004;2023-04-24T02:54:22;4.33;;;4.00;;
1577;SDS011;57623;53.608;10.004;2023-04-24T02:56:50;4.47;;;4.17;;
1577;SDS011;57623;53.608;10.004;2023-04-24T02:59:21;4.27;;;3.90;;
1577;SDS011;57623;53.608;10.004;2023-04-24T03:01:49;4.07;;;3.77;;
1577;SDS011;57623;53.608;10.004;2023-04-24T03:04:19;3.80;;;3.60;;
1577;SDS011;57623;53.608;10.004;2023-04-24T03:06:50;4.10;;;3.80;;
1577;SDS011;57623;53.608;10.004;2023-04-24T03:09:19;3.97;;;3.70;;
1577;SDS011;57623;53.608;10.004;2023-04-24T03:11:47;3.73;;;3.50;;
1577;SDS011;57623;53.608;10.004;2023-04-24T03:14:15;3.50;;;3.30;;
1577;SDS011;57623;53.608;10.004;2023-04-24T03:16:43;3.43;;;3.23;;
1577;SDS011;57623;53.608;10.004;2023-04-24T03:19:11;3.87;;;3.33;;
1577;SDS011;57623;53.608;10.004;2023-04-24T03:21:39;5.13;;;3.10;;
1577;SDS011;57623;53.608;10.004;2023-04-24T03:24:09;3.93;;;3.60;;
1577;SDS011;57623;53.608;10.004;2023-04-24T03:26:37;3.23;;;3.03;;
1577;SDS011;57623;53.608;10.004;2023-04-24T03:29:05;2.97;;;2.77;;
1577;SDS011;57623;53.608;10.004;2023-04-24T03:31:33;3.97;;;3.67;;
1577;SDS011;57623;53.608;10.004;2023-04-24T03:34:01;3.87;;;2.60;;
1577;SDS011;57623;53.608;10.004;2023-04-24T03:36:29;2.60;;;2.40;;
1577;SDS011;57623;53.608;10.004;2023-04-24T03:38:57;2.87;;;2.67;;
1577;SDS011;57623;53.608;10.004;2023-04-24T03:41:27;3.80;;;3.50;;
1577;SDS011;57623;53.608;10.004;2023-04-24T03:43:55;3.07;;;2.87;;
1577;SDS011;57623;53.608;10.004;2023-04-24T03:46:23;2.87;;;2.67;;
1577;SDS011;57623;53.608;10.004;2023-04-24T03:48:51;3.20;;;3.00;;
1577;SDS011;57623;53.608;10.004;2023-04-24T03:51:19;3.10;;;2.90;;
1577;SDS011;57623;53.608;10.004;2023-04-24T03:53:47;3.53;;;3.30;;
1577;SDS011;57623;53.608;10.004;2023-04-24T03:56:15;2.90;;;2.70;;
1577;SDS011;57623;53.608;10.004;2023-04-24T03:58:45;3.00;;;2.80;;
1577;SDS011;57623;53.608;10.004;2023-04-24T04:01:13;2.90;;;2.70;;
1577;SDS011;57623;53.608;10.004;2023-04-24T04:03:42;3.37;;;3.17;;
1577;SDS011;57623;53.608;10.004;2023-04-24T04:06:10;3.40;;;3.10;;
1577;SDS011;57623;53.608;10.004;2023-04-24T04:08:39;2.97;;;2.67;;
1577;SDS011;57623;53.608;10.004;2023-04-24T04:11:07;3.60;;;3.30;;
1577;SDS011;57623;53.608;10.004;2023-04-24T04:13:37;3.30;;;3.00;;
1577;SDS011;57623;53.608;10.004;2023-04-24T04:16:08;2.70;;;2.50;;
1577;SDS011;57623;53.608;10.004;2023-04-24T04:18:36;2.70;;;2.50;;
1577;SDS011;57623;53.608;10.004;2023-04-24T04:21:04;2.50;;;2.40;;
1577;SDS011;57623;53.608;10.004;2023-04-24T04:23:32;2.63;;;2.43;;
1577;SDS011;57623;53.608;10.004;2023-04-24T04:26:00;2.30;;;2.20;;
1577;SDS011;57623;53.608;10.004;2023-04-24T04:28:28;2.60;;;2.40;;
1577;SDS011;57623;53.608;10.004;2023-04-24T04:30:56;2.73;;;2.53;;
1577;SDS011;57623;53.608;10.004;2023-04-24T04:33:26;2.30;;;2.10;;
1577;SDS011;57623;53.608;10.004;2023-04-24T04:35:54;2.47;;;2.37;;
1577;SDS011;57623;53.608;10.004;2023-04-24T04:38:23;2.30;;;2.10;;
1577;SDS011;57623;53.608;10.004;2023-04-24T04:40:52;2.10;;;2.00;;
1577;SDS011;57623;53.608;10.004;2023-04-24T04:43:22;2.67;;;2.53;;
1577;SDS011;57623;53.608;10.004;2023-04-24T04:45:50;2.50;;;2.30;;
1577;SDS011;57623;53.608;10.004;2023-04-24T04:48:20;2.03;;;1.93;;
1577;SDS011;57623;53.608;10.004;2023-04-24T04:50:50;3.10;;;2.53;;
1577;SDS011;57623;53.608;10.004;2023-04-24T04:53:17;2.40;;;2.20;;
1577;SDS011;57623;53.608;10.004;2023-04-24T04:55:46;2.20;;;2.00;;
1577;SDS011;57623;53.608;10.004;2023-04-24T04:58:14;3.43;;;2.13;;
1577;SDS011;57623;53.608;10.004;2023-04-24T05:00:42;2.07;;;1.87;;
1577;SDS011;57623;53.608;10.004;2023-04-24T05:03:10;2.30;;;2.10;;
1577;SDS011;57623;53.608;10.004;2023-04-24T05:05:47;2.50;;;2.40;;
1577;SDS011;57623;53.608;10.004;2023-04-24T05:08:16;3.17;;;2.20;;
1577;SDS011;57623;53.608;10.004;2023-04-24T05:10:52;2.50;;;2.30;;
1577;SDS011;57623;53.608;10.004;2023-04-24T05:13:20;2.57;;;2.37;;
1577;SDS011;57623;53.608;10.004;2023-04-24T05:16:04;2.50;;;2.30;;
1577;SDS011;57623;53.608;10.004;2023-04-24T05:18:32;2.30;;;2.10;;
1577;SDS011;57623;53.608;10.004;2023-04-24T05:21:00;2.47;;;2.17;;
1577;SDS011;57623;53.608;10.004;2023-04-24T05:23:29;2.37;;;2.17;;
1577;SDS011;57623;53.608;10.004;2023-04-24T05:25:57;1.93;;;1.83;;
1577;SDS011;57623;53.608;10.004;2023-04-24T05:28:25;1.97;;;1.87;;
1577;SDS011;57623;53.608;10.004;2023-04-24T05:30:54;2.67;;;2.00;;
1577;SDS011;57623;53.608;10.004;2023-04-24T05:33:23;2.33;;;2.13;;
1577;SDS011;57623;53.608;10.004;2023-04-24T05:35:51;3.00;;;1.80;;
1577;SDS011;57623;53.608;10.004;2023-04-24T05:38:19;2.57;;;2.00;;
1577;SDS011;57623;53.608;10.004;2023-04-24T05:40:48;2.10;;;2.00;;
1577;SDS011;57623;53.608;10.004;2023-04-24T05:43:16;2.00;;;1.90;;
1577;SDS011;57623;53.608;10.004;2023-04-24T05:45:44;2.10;;;2.00;;
1577;SDS011;57623;53.608;10.004;2023-04-24T05:48:12;2.17;;;2.07;;
1577;SDS011;57623;53.608;10.004;2023-04-24T05:50:40;2.40;;;2.00;;
1577;SDS011;57623;53.608;10.004;2023-04-24T05:53:08;2.37;;;2.27;;
1577;SDS011;57623;53.608;10.004;2023-04-24T05:55:36;2.17;;;2.07;;
1577;SDS011;57623;53.608;10.004;2023-04-24T05:58:06;2.57;;;2.37;;
1577;SDS011;57623;53.608;10.004;2023-04-24T06:00:34;2.43;;;2.23;;
1577;SDS011;57623;53.608;10.004;2023-04-24T06:03:02;2.43;;;2.23;;
1577;SDS011;57623;53.608;10.004;2023-04-24T06:05:33;2.50;;;2.40;;
1577;SDS011;57623;53.608;10.004;2023-04-24T06:08:01;2.73;;;2.53;;
1577;SDS011;57623;53.608;10.004;2023-04-24T06:10:29;2.30;;;2.10;;
1577;SDS011;57623;53.608;10.004;2023-04-24T06:12:57;2.40;;;2.30;;
1577;SDS011;57623;53.608;10.004;2023-04-24T06:15:29;2.50;;;2.40;;
1577;SDS011;57623;53.608;10.004;2023-04-24T06:17:57;2.80;;;2.60;;
1577;SDS011;57623;53.608;10.004;2023-04-24T06:20:25;2.43;;;2.33;;
1577;SDS011;57623;53.608;10.004;2023-04-24T06:22:53;2.83;;;2.30;;
1577;SDS011;57623;53.608;10.004;2023-04-24T06:25:21;3.80;;;2.40;;
1577;SDS011;57623;53.608;10.004;2023-04-24T06:27:50;2.37;;;2.20;;
1577;SDS011;57623;53.608;10.004;2023-04-24T06:30:18;2.63;;;2.37;;
1577;SDS011;57623;53.608;10.004;2023-04-24T06:32:48;2.83;;;2.30;;
1577;SDS011;57623;53.608;10.004;2023-04-24T06:35:16;2.40;;;2.20;;
1577;SDS011;57623;53.608;10.004;2023-04-24T06:37:44;2.40;;;2.20;;
1577;SDS011;57623;53.608;10.004;2023-04-24T06:40:12;2.80;;;2.60;;
1577;SDS011;57623;53.608;10.004;2023-04-24T06:42:40;2.43;;;2.23;;
1577;SDS011;57623;53.608;10.004;2023-04-24T06:45:08;3.17;;;2.80;;
1577;SDS011;57623;53.608;10.004;2023-04-24T06:47:37;2.93;;;2.73;;
1577;SDS011;57623;53.608;10.004;2023-04-24T06:50:07;2.90;;;2.70;;
1577;SDS011;57623;53.608;10.004;2023-04-24T06:52:35;3.13;;;2.73;;
1577;SDS011;57623;53.608;10.004;2023-04-24T06:55:04;3.10;;;2.80;;
1577;SDS011;57623;53.608;10.004;2023-04-24T06:57:32;2.63;;;2.43;;
1577;SDS011;57623;53.608;10.004;2023-04-24T07:00:00;3.13;;;2.30;;
1577;SDS011;57623;53.608;10.004;2023-04-24T07:02:29;3.20;;;3.00;;
1577;SDS011;57623;53.608;10.004;2023-04-24T07:04:57;3.30;;;2.40;;
1577;SDS011;57623;53.608;10.004;2023-04-24T07:07:26;4.10;;;3.00;;
1577;SDS011;57623;53.608;10.004;2023-04-24T07:09:54;3.07;;;2.87;;
1577;SDS011;57623;53.608;10.004;2023-04-24T07:12:24;3.00;;;2.80;;
1577;SDS011;57623;53.608;10.004;2023-04-24T07:14:52;3.30;;;3.03;;
1577;SDS011;57623;53.608;10.004;2023-04-24T07:17:20;3.60;;;3.30;;
1577;SDS011;57623;53.608;10.004;2023-04-24T07:19:48;3.63;;;3.40;;
1577;SDS011;57623;53.608;10.004;2023-04-24T07:22:16;3.90;;;3.60;;
1577;SDS011;57623;53.608;10.004;2023-04-24T07:24:45;4.00;;;3.70;;
1577;SDS011;57623;53.608;10.004;2023-04-24T07:27:13;3.80;;;3.60;;
1577;SDS011;57623;53.608;10.004;2023-04-24T07:29:41;4.37;;;4.00;;
1577;SDS011;57623;53.608;10.004;2023-04-24T07:32:11;4.00;;;3.77;;
1577;SDS011;57623;53.608;10.004;2023-04-24T07:34:39;4.47;;;4.07;;
1577;SDS011;57623;53.608;10.004;2023-04-24T07:37:07;4.20;;;3.90;;
1577;SDS011;57623;53.608;10.004;2023-04-24T07:39:35;3.57;;;3.37;;
1577;SDS011;57623;53.608;10.004;2023-04-24T07:42:04;3.50;;;3.20;;
1577;SDS011;57623;53.608;10.004;2023-04-24T07:44:32;4.80;;;4.50;;
1577;SDS011;57623;53.608;10.004;2023-04-24T07:47:00;4.40;;;4.10;;
1577;SDS011;57623;53.608;10.004;2023-04-24T07:49:28;4.97;;;4.57;;
1577;SDS011;57623;53.608;10.004;2023-04-24T07:51:56;4.90;;;4.60;;
1577;SDS011;57623;53.608;10.004;2023-04-24T07:54:26;5.63;;;5.23;;
1577;SDS011;57623;53.608;10.004;2023-04-24T07:56:54;5.30;;;4.90;;
1577;SDS011;57623;53.608;10.004;2023-04-24T07:59:24;6.27;;;5.73;;
1577;SDS011;57623;53.608;10.004;2023-04-24T08:01:52;5.53;;;5.13;;
1577;SDS011;57623;53.608;10.004;2023-04-24T08:04:20;6.33;;;5.83;;
1577;SDS011;57623;53.608;10.004;2023-04-24T08:06:48;6.27;;;5.80;;
1577;SDS011;57623;53.608;10.004;2023-04-24T08:09:16;5.13;;;4.80;;
1577;SDS011;57623;53.608;10.004;2023-04-24T08:11:44;6.23;;;5.73;;
1577;SDS011;57623;53.608;10.004;2023-04-24T08:14:12;5.80;;;5.40;;
1577;SDS011;57623;53.608;10.004;2023-04-24T08:16:42;6.17;;;5.67;;
1577;SDS011;57623;53.608;10.004;2023-04-24T08:19:10;5.77;;;5.27;;
1577;SDS011;57623;53.608;10.004;2023-04-24T08:21:38;6.00;;;5.60;;
1577;SDS011;57623;53.608;10.004;2023-04-24T08:24:06;6.17;;;5.57;;
1577;SDS011;57623;53.608;10.004;2023-04-24T08:26:34;6.80;;;6.30;;
1577;SDS011;57623;53.608;10.004;2023-04-24T08:29:02;6.70;;;6.17;;
1577;SDS011;57623;53.608;10.004;2023-04-24T08:31:30;6.63;;;6.03;;
1577;SDS011;57623;53.608;10.004;2023-04-24T08:34:00;6.63;;;6.17;;
1577;SDS011;57623;53.608;10.004;2023-04-24T08:36:28;6.73;;;6.27;;
1577;SDS011;57623;53.608;10.004;2023-04-24T08:39:11;6.97;;;6.37;;
1577;SDS011;57623;53.608;10.004;2023-04-24T08:41:39;7.23;;;6.63;;
1577;SDS011;57623;53.608;10.004;2023-04-24T08:44:09;6.90;;;6.30;;
1577;SDS011;57623;53.608;10.004;2023-04-24T08:46:37;6.43;;;5.93;;
1577;SDS011;57623;53.608;10.004;2023-04-24T08:49:08;6.60;;;6.10;;
1577;SDS011;57623;53.608;10.004;2023-04-24T08:51:37;6.40;;;5.90;;
1577;SDS011;57623;53.608;10.004;2023-04-24T08:54:05;7.10;;;6.60;;
1577;SDS011;57623;53.608;10.004;2023-04-24T08:56:34;6.90;;;6.40;;
1577;SDS011;57623;53.608;10.004;2023-04-24T08:59:05;6.83;;;6.33;;
1577;SDS011;57623;53.608;10.004;2023-04-24T09:01:34;7.17;;;6.60;;
1577;SDS011;57623;53.608;10.004;2023-04-24T09:04:06;7.50;;;6.90;;
1577;SDS011;57623;53.608;10.004;2023-04-24T09:06:38;8.10;;;7.50;;
1577;SDS011;57623;53.608;10.004;2023-04-24T09:09:06;8.17;;;7.47;;
1577;SDS011;57623;53.608;10.004;2023-04-24T09:11:35;7.70;;;7.07;;
1577;SDS011;57623;53.608;10.004;2023-04-24T09:14:04;7.97;;;7.37;;
1577;SDS011;57623;53.608;10.004;2023-04-24T09:16:33;8.10;;;7.33;;
1577;SDS011;57623;53.608;10.004;2023-04-24T09:19:02;8.27;;;7.67;;
1577;SDS011;57623;53.608;10.004;2023-04-24T09:21:32;7.57;;;6.87;;
1577;SDS011;57623;53.608;10.004;2023-04-24T09:24:01;8.70;;;8.00;;
1577;SDS011;57623;53.608;10.004;2023-04-24T09:26:31;8.00;;;7.30;;
1577;SDS011;57623;53.608;10.004;2023-04-24T09:28:59;8.97;;;8.20;;
1577;SDS011;57623;53.608;10.004;2023-04-24T09:31:28;7.90;;;7.30;;
1577;SDS011;57623;53.608;10.004;2023-04-24T09:33:58;8.17;;;7.43;;
1577;SDS011;57623;53.608;10.004;2023-04-24T09:36:29;7.30;;;6.70;;
1577;SDS011;57623;53.608;10.004;2023-04-24T09:39:01;7.60;;;6.87;;
1577;SDS011;57623;53.608;10.004;2023-04-24T09:41:32;7.23;;;6.63;;
1577;SDS011;57623;53.608;10.004;2023-04-24T09:44:01;7.00;;;6.50;;
1577;SDS011;57623;53.608;10.004;2023-04-24T09:46:40;7.37;;;6.83;;
1577;SDS011;57623;53.608;10.004;2023-04-24T09:49:09;8.17;;;7.37;;
1577;SDS011;57623;53.608;10.004;2023-04-24T09:51:41;7.30;;;6.70;;
1577;SDS011;57623;53.608;10.004;2023-04-24T09:54:14;7.53;;;6.83;;
1577;SDS011;57623;53.608;10.004;2023-04-24T09:56:43;7.90;;;7.20;;
1577;SDS011;57623;53.608;10.004;2023-04-24T09:59:12;7.50;;;6.90;;
1577;SDS011;57623;53.608;10.004;2023-04-24T10:01:40;7.13;;;6.53;;
1577;SDS011;57623;53.608;10.004;2023-04-24T10:04:17;7.77;;;7.07;;
1577;SDS011;57623;53.608;10.004;2023-04-24T10:06:46;8.00;;;7.30;;
1577;SDS011;57623;53.608;10.004;2023-04-24T10:09:17;9.43;;;8.73;;
1577;SDS011;57623;53.608;10.004;2023-04-24T10:11:48;9.40;;;8.60;;
1577;SDS011;57623;53.608;10.004;2023-04-24T10:14:17;9.17;;;8.47;;
1577;SDS011;57623;53.608;10.004;2023-04-24T10:16:47;8.73;;;8.00;;
1577;SDS011;57623;53.608;10.004;2023-04-24T10:19:15;9.20;;;8.43;;
1577;SDS011;57623;53.608;10.004;2023-04-24T10:21:46;10.43;;;9.43;;
1577;SDS011;57623;53.608;10.004;2023-04-24T10:24:14;9.87;;;8.90;;
1577;SDS011;57623;53.608;10.004;2023-04-24T10:26:46;9.93;;;9.03;;
1577;SDS011;57623;53.608;10.004;2023-04-24T10:29:18;10.50;;;9.30;;
1577;SDS011;57623;53.608;10.004;2023-04-24T10:31:47;10.33;;;9.43;;
1577;SDS011;57623;53.608;10.004;2023-04-24T10:34:16;10.93;;;9.80;;
1577;SDS011;57623;53.608;10.004;2023-04-24T10:36:47;10.67;;;9.57;;
1577;SDS011;57623;53.608;10.004;2023-04-24T10:39:22;10.40;;;9.50;;
1577;SDS011;57623;53.608;10.004;2023-04-24T10:41:53;10.23;;;9.43;;
1577;SDS011;57623;53.608;10.004;2023-04-24T10:44:23;11.03;;;10.03;;
1577;SDS011;57623;53.608;10.004;2023-04-24T10:46:53;11.30;;;10.37;;
1577;SDS011;57623;53.608;10.004;2023-04-24T10:49:27;11.13;;;10.17;;
1577;SDS011;57623;53.608;10.004;2023-04-24T10:51:59;13.20;;;12.00;;
1577;SDS011;57623;53.608;10.004;2023-04-24T10:54:33;12.30;;;11.20;;
1577;SDS011;57623;53.608;10.004;2023-04-24T11:00:10;11.67;;;10.57;;
1577;SDS011;57623;53.608;10.004;2023-04-24T11:02:42;11.40;;;10.40;;
1577;SDS011;57623;53.608;10.004;2023-04-24T11:05:15;11.80;;;10.80;;
1577;SDS011;57623;53.608;10.004;2023-04-24T11:10:39;12.17;;;10.93;;
1577;SDS011;57623;53.608;10.004;2023-04-24T11:13:13;12.63;;;11.53;;
1577;SDS011;57623;53.608;10.004;2023-04-24T11:15:42;12.03;;;11.03;;
1577;SDS011;57623;53.608;10.004;2023-04-24T11:18:13;12.60;;;11.40;;
1577;SDS011;57623;53.608;10.004;2023-04-24T11:20:42;12.20;;;11.00;;
1577;SDS011;57623;53.608;10.004;2023-04-24T11:23:11;13.63;;;11.40;;
1577;SDS011;57623;53.608;10.004;2023-04-24T11:25:42;11.47;;;10.47;;
1577;SDS011;57623;53.608;10.004;2023-04-24T11:28:13;11.80;;;10.67;;
1577;SDS011;57623;53.608;10.004;2023-04-24T11:30:43;11.60;;;10.40;;
1577;SDS011;57623;53.608;10.004;2023-04-24T11:33:11;11.33;;;10.23;;
1577;SDS011;57623;53.608;10.004;2023-04-24T11:35:46;10.97;;;9.93;;
1577;SDS011;57623;53.608;10.004;2023-04-24T11:38:14;10.07;;;9.20;;
1577;SDS011;57623;53.608;10.004;2023-04-24T11:40:51;10.40;;;9.50;;
1577;SDS011;57623;53.608;10.004;2023-04-24T11:43:20;10.27;;;9.33;;
1577;SDS011;57623;53.608;10.004;2023-04-24T11:45:48;10.93;;;9.93;;
1577;SDS011;57623;53.608;10.004;2023-04-24T11:48:18;10.77;;;9.77;;
1577;SDS011;57623;53.608;10.004;2023-04-24T11:50:49;10.20;;;9.30;;
1577;SDS011;57623;53.608;10.004;2023-04-24T11:53:18;10.73;;;9.83;;
1577;SDS011;57623;53.608;10.004;2023-04-24T11:55:47;10.50;;;9.60;;
1577;SDS011;57623;53.608;10.004;2023-04-24T11:58:17;9.83;;;9.00;;
1577;SDS011;57623;53.608;10.004;2023-04-24T12:00:55;9.10;;;8.30;;
1577;SDS011;57623;53.608;10.004;2023-04-24T12:03:24;9.67;;;8.83;;
1577;SDS011;57623;53.608;10.004;2023-04-24T12:05:52;9.27;;;8.37;;
1577;SDS011;57623;53.608;10.004;2023-04-24T12:08:31;9.60;;;8.67;;
1577;SDS011;57623;53.608;10.004;2023-04-24T12:11:02;9.07;;;8.27;;
1577;SDS011;57623;53.608;10.004;2023-04-24T12:13:32;8.20;;;7.60;;
1577;SDS011;57623;53.608;10.004;2023-04-24T12:16:01;9.43;;;8.23;;
1577;SDS011;57623;53.608;10.004;2023-04-24T12:18:30;8.40;;;7.70;;
1577;SDS011;57623;53.608;10.004;2023-04-24T12:23:56;8.60;;;7.80;;
1577;SDS011;57623;53.608;10.004;2023-04-24T12:26:24;7.63;;;7.03;;
1577;SDS011;57623;53.608;10.004;2023-04-24T12:28:54;8.43;;;7.60;;
1577;SDS011;57623;53.608;10.004;2023-04-24T12:31:22;8.87;;;8.17;;
1577;SDS011;57623;53.608;10.004;2023-04-24T12:33:50;7.70;;;7.07;;
1577;SDS011;57623;53.608;10.004;2023-04-24T12:36:18;7.43;;;6.83;;
1577;SDS011;57623;53.608;10.004;2023-04-24T12:38:52;9.33;;;8.53;;
1577;SDS011;57623;53.608;10.004;2023-04-24T12:41:20;8.50;;;7.53;;
1577;SDS011;57623;53.608;10.004;2023-04-24T12:43:51;9.30;;;8.60;;
1577;SDS011;57623;53.608;10.004;2023-04-24T12:46:21;8.53;;;7.90;;
1577;SDS011;57623;53.608;10.004;2023-04-24T12:48:49;8.20;;;7.50;;
1577;SDS011;57623;53.608;10.004;2023-04-24T12:51:17;8.47;;;7.67;;
1577;SDS011;57623;53.608;10.004;2023-04-24T12:53:45;9.13;;;8.33;;
1577;SDS011;57623;53.608;10.004;2023-04-24T12:56:13;8.97;;;8.27;;
1577;SDS011;57623;53.608;10.004;2023-04-24T12:58:41;9.20;;;8.40;;
1577;SDS011;57623;53.608;10.004;2023-04-24T13:01:10;8.07;;;7.47;;
1577;SDS011;57623;53.608;10.004;2023-04-24T13:03:39;8.93;;;8.23;;
1577;SDS011;57623;53.608;10.004;2023-04-24T13:06:07;8.03;;;7.43;;
1577;SDS011;57623;53.608;10.004;2023-04-24T13:08:35;8.33;;;7.63;;
1577;SDS011;57623;53.608;10.004;2023-04-24T13:11:03;7.67;;;7.07;;
1577;SDS011;57623;53.608;10.004;2023-04-24T13:13:31;9.23;;;8.40;;
1577;SDS011;57623;53.608;10.004;2023-04-24T13:16:00;8.23;;;7.53;;
1577;SDS011;57623;53.608;10.004;2023-04-24T13:18:29;8.37;;;7.67;;
1577;SDS011;57623;53.608;10.004;2023-04-24T13:20:57;8.47;;;7.77;;
1577;SDS011;57623;53.608;10.004;2023-04-24T13:23:25;7.70;;;7.10;;
1577;SDS011;57623;53.608;10.004;2023-04-24T13:25:54;8.37;;;7.67;;
1577;SDS011;57623;53.608;10.004;2023-04-24T13:28:24;8.40;;;7.70;;
1577;SDS011;57623;53.608;10.004;2023-04-24T13:30:52;8.53;;;7.90;;
1577;SDS011;57623;53.608;10.004;2023-04-24T13:33:19;8.00;;;7.30;;
1577;SDS011;57623;53.608;10.004;2023-04-24T13:35:49;7.00;;;6.50;;
1577;SDS011;57623;53.608;10.004;2023-04-24T13:38:17;8.30;;;7.60;;
1577;SDS011;57623;53.608;10.004;2023-04-24T13:40:47;7.90;;;7.13;;
1577;SDS011;57623;53.608;10.004;2023-04-24T13:43:15;7.40;;;6.73;;
1577;SDS011;57623;53.608;10.004;2023-04-24T13:45:43;6.67;;;6.17;;
1577;SDS011;57623;53.608;10.004;2023-04-24T13:48:11;7.50;;;6.90;;
1577;SDS011;57623;53.608;10.004;2023-04-24T13:50:41;8.60;;;7.90;;
1577;SDS011;57623;53.608;10.004;2023-04-24T13:53:11;7.67;;;7.07;;
1577;SDS011;57623;53.608;10.004;2023-04-24T13:55:39;7.13;;;6.63;;
1577;SDS011;57623;53.608;10.004;2023-04-24T13:58:07;6.70;;;6.10;;
1577;SDS011;57623;53.608;10.004;2023-04-24T14:00:35;6.73;;;6.13;;
1577;SDS011;57623;53.608;10.004;2023-04-24T14:03:03;7.60;;;7.10;;
1577;SDS011;57623;53.608;10.004;2023-04-24T14:05:31;6.40;;;6.00;;
1577;SDS011;57623;53.608;10.004;2023-04-24T14:08:01;7.30;;;6.70;;
1577;SDS011;57623;53.608;10.004;2023-04-24T14:10:30;7.67;;;7.07;;
1577;SDS011;57623;53.608;10.004;2023-04-24T14:12:58;7.60;;;7.00;;
1577;SDS011;57623;53.608;10.004;2023-04-24T14:15:26;6.70;;;6.20;;
1577;SDS011;57623;53.608;10.004;2023-04-24T14:17:55;7.27;;;6.67;;
1577;SDS011;57623;53.608;10.004;2023-04-24T14:20:23;7.77;;;7.10;;
1577;SDS011;57623;53.608;10.004;2023-04-24T14:22:51;7.93;;;7.00;;
1577;SDS011;57623;53.608;10.004;2023-04-24T14:25:19;6.93;;;6.43;;
1577;SDS011;57623;53.608;10.004;2023-04-24T14:27:50;7.17;;;6.57;;
1577;SDS011;57623;53.608;10.004;2023-04-24T14:30:18;7.70;;;7.13;;
1577;SDS011;57623;53.608;10.004;2023-04-24T14:32:46;7.20;;;6.60;;
1577;SDS011;57623;53.608;10.004;2023-04-24T14:35:15;6.90;;;6.40;;
1577;SDS011;57623;53.608;10.004;2023-04-24T14:37:43;7.47;;;6.90;;
1577;SDS011;57623;53.608;10.004;2023-04-24T14:40:11;7.70;;;7.00;;
1577;SDS011;57623;53.608;10.004;2023-04-24T14:43:01;7.40;;;6.80;;
1577;SDS011;57623;53.608;10.004;2023-04-24T14:45:29;9.40;;;8.40;;
1577;SDS011;57623;53.608;10.004;2023-04-24T14:47:57;8.90;;;8.20;;
1577;SDS011;57623;53.608;10.004;2023-04-24T14:50:25;9.17;;;8.47;;
1577;SDS011;57623;53.608;10.004;2023-04-24T14:52:54;10.13;;;9.13;;
1577;SDS011;57623;53.608;10.004;2023-04-24T14:55:23;9.60;;;8.70;;
1577;SDS011;57623;53.608;10.004;2023-04-24T14:57:52;11.10;;;10.00;;
1577;SDS011;57623;53.608;10.004;2023-04-24T15:00:21;11.10;;;10.10;;
1577;SDS011;57623;53.608;10.004;2023-04-24T15:02:50;10.60;;;9.70;;
1577;SDS011;57623;53.608;10.004;2023-04-24T15:05:18;10.27;;;9.33;;